sensor_id;sensor_type;location;lat;lon;timestamp;P1;durP1;ratioP1;P2;durP2;ratioP2
13872;SDS011;7006;51.494;11.964;2022-07-29T00:02:24;5.00;;;2.80;;
13872;SDS011;7006;51.494;11.964;2022-07-29T00:04:51;5.73;;;2.70;;
13872;SDS011;7006;51.494;11.964;2022-07-29T00:07:17;6.87;;;2.30;;
13872;SDS011;7006;51.494;11.964;2022-07-29T00:09:44;4.37;;;2.50;;
13872;SDS011;7006;51.494;11.964;2022-07-29T00:12:10;3.93;;;2.60;;
13872;SDS011;7006;51.494;11.964;2022-07-29T00:14:38;6.30;;;2.93;;
13872;SDS011;7006;51.494;11.964;2022-07-29T00:17:04;4.40;;;2.57;;
13872;SDS011;7006;51.494;11.964;2022-07-29T00:19:31;5.93;;;2.30;;
13872;SDS011;7006;51.494;11.964;2022-07-29T00:21:59;3.40;;;2.27;;
13872;SDS011;7006;51.494;11.964;2022-07-29T00:24:25;4.93;;;2.37;;
13872;SDS011;7006;51.494;11.964;2022-07-29T00:26:52;5.07;;;2.47;;
13872;SDS011;7006;51.494;11.964;2022-07-29T00:29:18;4.93;;;2.53;;
13872;SDS011;7006;51.494;11.964;2022-07-29T00:31:46;5.20;;;2.50;;
13872;SDS011;7006;51.494;11.964;2022-07-29T00:34:13;3.43;;;2.30;;
13872;SDS011;7006;51.494;11.964;2022-07-29T00:36:53;6.17;;;2.90;;
13872;SDS011;7006;51.494;11.964;2022-07-29T00:39:19;4.77;;;2.40;;
13872;SDS011;7006;51.494;11.964;2022-07-29T00:41:46;4.30;;;2.50;;
13872;SDS011;7006;51.494;11.964;2022-07-29T00:44:13;2.90;;;2.20;;
13872;SDS011;7006;51.494;11.964;2022-07-29T00:46:39;4.50;;;2.43;;
13872;SDS011;7006;51.494;11.964;2022-07-29T00:49:07;6.23;;;2.90;;
13872;SDS011;7006;51.494;11.964;2022-07-29T00:51:34;3.70;;;2.27;;
13872;SDS011;7006;51.494;11.964;2022-07-29T00:54:01;5.60;;;2.60;;
13872;SDS011;7006;51.494;11.964;2022-07-29T00:56:29;7.97;;;2.70;;
13872;SDS011;7006;51.494;11.964;2022-07-29T00:58:56;6.23;;;2.50;;
13872;SDS011;7006;51.494;11.964;2022-07-29T01:01:22;6.77;;;2.80;;
13872;SDS011;7006;51.494;11.964;2022-07-29T01:03:49;3.60;;;2.37;;
13872;SDS011;7006;51.494;11.964;2022-07-29T01:06:17;4.70;;;2.23;;
13872;SDS011;7006;51.494;11.964;2022-07-29T01:08:44;5.63;;;2.93;;
13872;SDS011;7006;51.494;11.964;2022-07-29T01:11:11;5.77;;;2.70;;
13872;SDS011;7006;51.494;11.964;2022-07-29T01:13:38;5.17;;;2.60;;
13872;SDS011;7006;51.494;11.964;2022-07-29T01:16:06;6.37;;;2.60;;
13872;SDS011;7006;51.494;11.964;2022-07-29T01:18:38;4.97;;;2.60;;
13872;SDS011;7006;51.494;11.964;2022-07-29T01:21:32;4.77;;;2.97;;
13872;SDS011;7006;51.494;11.964;2022-07-29T01:24:24;6.50;;;2.47;;
13872;SDS011;7006;51.494;11.964;2022-07-29T01:26:57;4.57;;;2.67;;
13872;SDS011;7006;51.494;11.964;2022-07-29T01:29:28;3.90;;;2.50;;
13872;SDS011;7006;51.494;11.964;2022-07-29T01:31:57;7.50;;;2.70;;
13872;SDS011;7006;51.494;11.964;2022-07-29T01:34:27;5.70;;;2.47;;
13872;SDS011;7006;51.494;11.964;2022-07-29T01:37:00;6.37;;;3.30;;
13872;SDS011;7006;51.494;11.964;2022-07-29T01:39:32;5.80;;;2.60;;
13872;SDS011;7006;51.494;11.964;2022-07-29T01:42:02;5.07;;;3.00;;
13872;SDS011;7006;51.494;11.964;2022-07-29T01:44:35;5.20;;;2.40;;
13872;SDS011;7006;51.494;11.964;2022-07-29T01:47:05;3.73;;;2.60;;
13872;SDS011;7006;51.494;11.964;2022-07-29T01:49:36;4.17;;;2.60;;
13872;SDS011;7006;51.494;11.964;2022-07-29T01:52:04;3.93;;;2.83;;
13872;SDS011;7006;51.494;11.964;2022-07-29T01:54:34;5.03;;;2.47;;
13872;SDS011;7006;51.494;11.964;2022-07-29T01:57:03;4.13;;;2.60;;
13872;SDS011;7006;51.494;11.964;2022-07-29T01:59:30;6.13;;;3.17;;
13872;SDS011;7006;51.494;11.964;2022-07-29T02:02:01;5.53;;;3.00;;
13872;SDS011;7006;51.494;11.964;2022-07-29T02:04:27;4.67;;;2.80;;
13872;SDS011;7006;51.494;11.964;2022-07-29T02:06:54;10.17;;;3.00;;
13872;SDS011;7006;51.494;11.964;2022-07-29T02:09:23;6.40;;;3.40;;
13872;SDS011;7006;51.494;11.964;2022-07-29T02:11:52;5.10;;;2.70;;
13872;SDS011;7006;51.494;11.964;2022-07-29T02:14:20;5.00;;;2.90;;
13872;SDS011;7006;51.494;11.964;2022-07-29T02:16:50;6.83;;;3.07;;
13872;SDS011;7006;51.494;11.964;2022-07-29T02:19:19;5.93;;;3.10;;
13872;SDS011;7006;51.494;11.964;2022-07-29T02:21:48;5.00;;;3.00;;
13872;SDS011;7006;51.494;11.964;2022-07-29T02:24:14;8.03;;;3.00;;
13872;SDS011;7006;51.494;11.964;2022-07-29T02:26:42;5.90;;;3.47;;
13872;SDS011;7006;51.494;11.964;2022-07-29T02:29:09;6.10;;;3.20;;
13872;SDS011;7006;51.494;11.964;2022-07-29T02:31:36;6.20;;;2.90;;
13872;SDS011;7006;51.494;11.964;2022-07-29T02:34:06;5.00;;;3.27;;
13872;SDS011;7006;51.494;11.964;2022-07-29T02:36:35;4.63;;;3.07;;
13872;SDS011;7006;51.494;11.964;2022-07-29T02:39:03;5.10;;;3.07;;
13872;SDS011;7006;51.494;11.964;2022-07-29T02:41:33;5.57;;;3.00;;
13872;SDS011;7006;51.494;11.964;2022-07-29T02:44:03;4.83;;;2.93;;
13872;SDS011;7006;51.494;11.964;2022-07-29T02:46:33;6.03;;;3.07;;
13872;SDS011;7006;51.494;11.964;2022-07-29T02:49:11;5.30;;;3.63;;
13872;SDS011;7006;51.494;11.964;2022-07-29T02:51:41;5.70;;;3.30;;
13872;SDS011;7006;51.494;11.964;2022-07-29T02:54:10;7.53;;;3.53;;
13872;SDS011;7006;51.494;11.964;2022-07-29T02:56:37;5.00;;;3.40;;
13872;SDS011;7006;51.494;11.964;2022-07-29T02:59:06;5.50;;;3.23;;
13872;SDS011;7006;51.494;11.964;2022-07-29T03:01:35;7.03;;;3.30;;
13872;SDS011;7006;51.494;11.964;2022-07-29T03:04:05;4.97;;;3.10;;
13872;SDS011;7006;51.494;11.964;2022-07-29T03:06:35;4.10;;;2.80;;
13872;SDS011;7006;51.494;11.964;2022-07-29T03:09:02;9.50;;;3.27;;
13872;SDS011;7006;51.494;11.964;2022-07-29T03:11:29;6.37;;;3.27;;
13872;SDS011;7006;51.494;11.964;2022-07-29T03:13:56;5.53;;;3.57;;
13872;SDS011;7006;51.494;11.964;2022-07-29T03:16:22;5.37;;;3.20;;
13872;SDS011;7006;51.494;11.964;2022-07-29T03:18:49;3.83;;;2.93;;
13872;SDS011;7006;51.494;11.964;2022-07-29T03:21:16;6.50;;;3.27;;
13872;SDS011;7006;51.494;11.964;2022-07-29T03:23:46;4.87;;;3.27;;
13872;SDS011;7006;51.494;11.964;2022-07-29T03:26:13;6.13;;;3.20;;
13872;SDS011;7006;51.494;11.964;2022-07-29T03:28:39;6.60;;;3.10;;
13872;SDS011;7006;51.494;11.964;2022-07-29T03:31:06;4.77;;;2.90;;
13872;SDS011;7006;51.494;11.964;2022-07-29T03:33:32;4.60;;;3.10;;
13872;SDS011;7006;51.494;11.964;2022-07-29T03:35:59;11.00;;;3.30;;
13872;SDS011;7006;51.494;11.964;2022-07-29T03:38:27;7.30;;;3.30;;
13872;SDS011;7006;51.494;11.964;2022-07-29T03:40:58;46.10;;;12.13;;
13872;SDS011;7006;51.494;11.964;2022-07-29T03:43:26;6.43;;;3.20;;
13872;SDS011;7006;51.494;11.964;2022-07-29T03:45:55;4.17;;;3.30;;
13872;SDS011;7006;51.494;11.964;2022-07-29T03:48:23;4.97;;;3.70;;
13872;SDS011;7006;51.494;11.964;2022-07-29T03:50:50;4.60;;;3.40;;
13872;SDS011;7006;51.494;11.964;2022-07-29T03:53:17;5.07;;;3.50;;
13872;SDS011;7006;51.494;11.964;2022-07-29T03:55:44;8.27;;;4.47;;
13872;SDS011;7006;51.494;11.964;2022-07-29T03:58:14;4.80;;;3.30;;
13872;SDS011;7006;51.494;11.964;2022-07-29T04:00:41;5.90;;;3.17;;
13872;SDS011;7006;51.494;11.964;2022-07-29T04:03:09;4.50;;;3.10;;
13872;SDS011;7006;51.494;11.964;2022-07-29T04:05:35;7.80;;;3.37;;
13872;SDS011;7006;51.494;11.964;2022-07-29T04:08:02;8.50;;;4.37;;
13872;SDS011;7006;51.494;11.964;2022-07-29T04:10:29;6.33;;;3.90;;
13872;SDS011;7006;51.494;11.964;2022-07-29T04:12:55;9.10;;;3.70;;
13872;SDS011;7006;51.494;11.964;2022-07-29T04:15:23;3.77;;;2.90;;
13872;SDS011;7006;51.494;11.964;2022-07-29T04:17:49;6.80;;;3.83;;
13872;SDS011;7006;51.494;11.964;2022-07-29T04:20:16;8.20;;;3.90;;
13872;SDS011;7006;51.494;11.964;2022-07-29T04:22:43;11.03;;;4.37;;
13872;SDS011;7006;51.494;11.964;2022-07-29T04:25:09;5.77;;;4.73;;
13872;SDS011;7006;51.494;11.964;2022-07-29T04:27:36;6.57;;;3.87;;
13872;SDS011;7006;51.494;11.964;2022-07-29T04:30:24;6.73;;;3.87;;
13872;SDS011;7006;51.494;11.964;2022-07-29T04:32:50;6.17;;;3.50;;
13872;SDS011;7006;51.494;11.964;2022-07-29T04:35:17;8.23;;;3.20;;
13872;SDS011;7006;51.494;11.964;2022-07-29T04:37:43;4.83;;;3.57;;
13872;SDS011;7006;51.494;11.964;2022-07-29T04:40:10;6.10;;;4.37;;
13872;SDS011;7006;51.494;11.964;2022-07-29T04:42:37;3.77;;;2.97;;
13872;SDS011;7006;51.494;11.964;2022-07-29T04:45:04;7.10;;;3.70;;
13872;SDS011;7006;51.494;11.964;2022-07-29T04:47:33;4.67;;;3.10;;
13872;SDS011;7006;51.494;11.964;2022-07-29T04:50:00;5.03;;;4.10;;
13872;SDS011;7006;51.494;11.964;2022-07-29T04:52:26;10.53;;;3.80;;
13872;SDS011;7006;51.494;11.964;2022-07-29T04:54:53;8.20;;;4.10;;
13872;SDS011;7006;51.494;11.964;2022-07-29T04:57:19;7.13;;;3.97;;
13872;SDS011;7006;51.494;11.964;2022-07-29T04:59:45;5.63;;;3.90;;
13872;SDS011;7006;51.494;11.964;2022-07-29T05:02:12;5.60;;;3.80;;
13872;SDS011;7006;51.494;11.964;2022-07-29T05:04:40;5.13;;;3.70;;
13872;SDS011;7006;51.494;11.964;2022-07-29T05:07:06;5.20;;;3.40;;
13872;SDS011;7006;51.494;11.964;2022-07-29T05:09:33;4.97;;;3.50;;
13872;SDS011;7006;51.494;11.964;2022-07-29T05:11:59;5.00;;;3.53;;
13872;SDS011;7006;51.494;11.964;2022-07-29T05:14:26;5.67;;;3.43;;
13872;SDS011;7006;51.494;11.964;2022-07-29T05:16:52;4.23;;;3.00;;
13872;SDS011;7006;51.494;11.964;2022-07-29T05:19:21;4.40;;;3.40;;
13872;SDS011;7006;51.494;11.964;2022-07-29T05:21:49;4.60;;;3.67;;
13872;SDS011;7006;51.494;11.964;2022-07-29T05:24:16;7.40;;;4.10;;
13872;SDS011;7006;51.494;11.964;2022-07-29T05:26:42;4.57;;;3.50;;
13872;SDS011;7006;51.494;11.964;2022-07-29T05:29:09;6.93;;;3.57;;
13872;SDS011;7006;51.494;11.964;2022-07-29T05:31:36;5.63;;;3.97;;
13872;SDS011;7006;51.494;11.964;2022-07-29T05:34:02;5.70;;;3.80;;
13872;SDS011;7006;51.494;11.964;2022-07-29T05:36:29;6.40;;;4.00;;
13872;SDS011;7006;51.494;11.964;2022-07-29T05:38:57;11.10;;;3.87;;
13872;SDS011;7006;51.494;11.964;2022-07-29T05:41:23;4.70;;;3.43;;
13872;SDS011;7006;51.494;11.964;2022-07-29T05:43:49;6.33;;;3.90;;
13872;SDS011;7006;51.494;11.964;2022-07-29T05:46:16;6.47;;;3.83;;
13872;SDS011;7006;51.494;11.964;2022-07-29T05:48:43;5.57;;;3.20;;
13872;SDS011;7006;51.494;11.964;2022-07-29T05:51:09;6.37;;;3.70;;
13872;SDS011;7006;51.494;11.964;2022-07-29T05:53:36;5.00;;;3.50;;
13872;SDS011;7006;51.494;11.964;2022-07-29T05:56:04;9.20;;;4.10;;
13872;SDS011;7006;51.494;11.964;2022-07-29T05:58:31;8.40;;;3.50;;
13872;SDS011;7006;51.494;11.964;2022-07-29T06:00:57;8.90;;;3.67;;
13872;SDS011;7006;51.494;11.964;2022-07-29T06:03:25;6.20;;;4.07;;
13872;SDS011;7006;51.494;11.964;2022-07-29T06:05:51;6.43;;;3.30;;
13872;SDS011;7006;51.494;11.964;2022-07-29T06:08:18;5.03;;;3.30;;
13872;SDS011;7006;51.494;11.964;2022-07-29T06:10:45;7.50;;;4.03;;
13872;SDS011;7006;51.494;11.964;2022-07-29T06:13:13;9.83;;;3.40;;
13872;SDS011;7006;51.494;11.964;2022-07-29T06:15:40;5.93;;;3.40;;
13872;SDS011;7006;51.494;11.964;2022-07-29T06:18:07;9.80;;;3.73;;
13872;SDS011;7006;51.494;11.964;2022-07-29T06:20:35;11.37;;;3.30;;
13872;SDS011;7006;51.494;11.964;2022-07-29T06:23:01;7.67;;;4.00;;
13872;SDS011;7006;51.494;11.964;2022-07-29T06:25:29;9.93;;;3.37;;
13872;SDS011;7006;51.494;11.964;2022-07-29T06:27:57;5.97;;;3.50;;
13872;SDS011;7006;51.494;11.964;2022-07-29T06:30:25;7.40;;;4.10;;
13872;SDS011;7006;51.494;11.964;2022-07-29T06:32:51;8.80;;;3.67;;
13872;SDS011;7006;51.494;11.964;2022-07-29T06:35:18;6.93;;;3.70;;
13872;SDS011;7006;51.494;11.964;2022-07-29T06:37:44;6.43;;;3.53;;
13872;SDS011;7006;51.494;11.964;2022-07-29T06:40:11;6.50;;;3.67;;
13872;SDS011;7006;51.494;11.964;2022-07-29T06:42:56;8.17;;;3.60;;
13872;SDS011;7006;51.494;11.964;2022-07-29T06:45:28;12.70;;;4.17;;
13872;SDS011;7006;51.494;11.964;2022-07-29T06:47:55;8.07;;;3.70;;
13872;SDS011;7006;51.494;11.964;2022-07-29T06:50:21;8.30;;;4.10;;
13872;SDS011;7006;51.494;11.964;2022-07-29T06:52:48;7.40;;;3.43;;
13872;SDS011;7006;51.494;11.964;2022-07-29T06:55:14;6.50;;;3.90;;
13872;SDS011;7006;51.494;11.964;2022-07-29T06:57:40;8.77;;;4.40;;
13872;SDS011;7006;51.494;11.964;2022-07-29T07:00:07;7.50;;;3.57;;
13872;SDS011;7006;51.494;11.964;2022-07-29T07:02:36;8.67;;;3.60;;
13872;SDS011;7006;51.494;11.964;2022-07-29T07:05:03;9.20;;;4.27;;
13872;SDS011;7006;51.494;11.964;2022-07-29T07:07:30;9.03;;;3.50;;
13872;SDS011;7006;51.494;11.964;2022-07-29T07:09:57;9.10;;;4.10;;
13872;SDS011;7006;51.494;11.964;2022-07-29T07:12:23;9.67;;;3.57;;
13872;SDS011;7006;51.494;11.964;2022-07-29T07:14:50;9.20;;;3.63;;
13872;SDS011;7006;51.494;11.964;2022-07-29T07:17:16;10.57;;;3.87;;
13872;SDS011;7006;51.494;11.964;2022-07-29T07:19:44;6.50;;;3.40;;
13872;SDS011;7006;51.494;11.964;2022-07-29T07:22:11;10.20;;;3.53;;
13872;SDS011;7006;51.494;11.964;2022-07-29T07:24:37;7.83;;;3.53;;
13872;SDS011;7006;51.494;11.964;2022-07-29T07:27:04;9.13;;;3.70;;
13872;SDS011;7006;51.494;11.964;2022-07-29T07:29:30;13.83;;;3.93;;
13872;SDS011;7006;51.494;11.964;2022-07-29T07:31:57;12.43;;;3.90;;
13872;SDS011;7006;51.494;11.964;2022-07-29T07:34:23;11.10;;;4.23;;
13872;SDS011;7006;51.494;11.964;2022-07-29T07:36:51;7.00;;;3.90;;
13872;SDS011;7006;51.494;11.964;2022-07-29T07:39:18;5.90;;;3.50;;
13872;SDS011;7006;51.494;11.964;2022-07-29T07:41:44;8.70;;;4.27;;
13872;SDS011;7006;51.494;11.964;2022-07-29T07:44:11;8.63;;;4.07;;
13872;SDS011;7006;51.494;11.964;2022-07-29T07:46:37;9.90;;;4.10;;
13872;SDS011;7006;51.494;11.964;2022-07-29T07:49:04;13.60;;;4.80;;
13872;SDS011;7006;51.494;11.964;2022-07-29T07:51:30;8.73;;;4.10;;
13872;SDS011;7006;51.494;11.964;2022-07-29T07:53:58;10.63;;;5.33;;
13872;SDS011;7006;51.494;11.964;2022-07-29T07:56:25;11.20;;;4.70;;
13872;SDS011;7006;51.494;11.964;2022-07-29T07:58:52;15.83;;;4.90;;
13872;SDS011;7006;51.494;11.964;2022-07-29T08:01:19;18.93;;;6.07;;
13872;SDS011;7006;51.494;11.964;2022-07-29T08:03:47;19.23;;;5.73;;
13872;SDS011;7006;51.494;11.964;2022-07-29T08:06:14;11.83;;;5.30;;
13872;SDS011;7006;51.494;11.964;2022-07-29T08:08:41;11.20;;;6.33;;
13872;SDS011;7006;51.494;11.964;2022-07-29T08:11:08;11.50;;;6.50;;
13872;SDS011;7006;51.494;11.964;2022-07-29T08:13:35;9.70;;;6.90;;
13872;SDS011;7006;51.494;11.964;2022-07-29T08:16:03;14.57;;;7.20;;
13872;SDS011;7006;51.494;11.964;2022-07-29T08:18:37;8.20;;;6.20;;
13872;SDS011;7006;51.494;11.964;2022-07-29T08:21:04;9.93;;;6.47;;
13872;SDS011;7006;51.494;11.964;2022-07-29T08:23:31;7.70;;;5.83;;
13872;SDS011;7006;51.494;11.964;2022-07-29T08:26:03;7.77;;;5.03;;
13872;SDS011;7006;51.494;11.964;2022-07-29T08:28:31;8.90;;;4.93;;
13872;SDS011;7006;51.494;11.964;2022-07-29T08:30:58;10.30;;;5.73;;
13872;SDS011;7006;51.494;11.964;2022-07-29T08:33:24;8.67;;;5.40;;
13872;SDS011;7006;51.494;11.964;2022-07-29T08:35:51;10.30;;;5.50;;
13872;SDS011;7006;51.494;11.964;2022-07-29T08:38:17;7.60;;;5.83;;
13872;SDS011;7006;51.494;11.964;2022-07-29T08:40:44;8.40;;;5.60;;
13872;SDS011;7006;51.494;11.964;2022-07-29T08:43:11;8.10;;;5.37;;
13872;SDS011;7006;51.494;11.964;2022-07-29T08:45:42;7.73;;;5.13;;
13872;SDS011;7006;51.494;11.964;2022-07-29T08:48:11;9.37;;;5.80;;
13872;SDS011;7006;51.494;11.964;2022-07-29T08:50:38;6.20;;;5.60;;
13872;SDS011;7006;51.494;11.964;2022-07-29T08:53:06;8.57;;;6.00;;
13872;SDS011;7006;51.494;11.964;2022-07-29T08:55:33;11.00;;;4.87;;
13872;SDS011;7006;51.494;11.964;2022-07-29T08:57:59;10.30;;;5.87;;
13872;SDS011;7006;51.494;11.964;2022-07-29T09:00:27;9.60;;;5.50;;
13872;SDS011;7006;51.494;11.964;2022-07-29T09:02:57;10.63;;;5.87;;
13872;SDS011;7006;51.494;11.964;2022-07-29T09:05:24;7.23;;;5.67;;
13872;SDS011;7006;51.494;11.964;2022-07-29T09:07:52;6.17;;;5.00;;
13872;SDS011;7006;51.494;11.964;2022-07-29T09:10:19;7.00;;;5.60;;
13872;SDS011;7006;51.494;11.964;2022-07-29T09:12:45;7.63;;;5.77;;
13872;SDS011;7006;51.494;11.964;2022-07-29T09:15:13;8.57;;;5.53;;
13872;SDS011;7006;51.494;11.964;2022-07-29T09:17:40;7.13;;;6.30;;
13872;SDS011;7006;51.494;11.964;2022-07-29T09:20:10;10.33;;;4.80;;
13872;SDS011;7006;51.494;11.964;2022-07-29T09:22:37;7.47;;;5.33;;
13872;SDS011;7006;51.494;11.964;2022-07-29T09:25:05;9.23;;;4.87;;
13872;SDS011;7006;51.494;11.964;2022-07-29T09:27:32;6.40;;;5.23;;
13872;SDS011;7006;51.494;11.964;2022-07-29T09:29:59;6.13;;;5.00;;
13872;SDS011;7006;51.494;11.964;2022-07-29T09:32:26;9.53;;;4.40;;
13872;SDS011;7006;51.494;11.964;2022-07-29T09:37:45;6.67;;;4.33;;
13872;SDS011;7006;51.494;11.964;2022-07-29T09:40:13;6.40;;;4.10;;
13872;SDS011;7006;51.494;11.964;2022-07-29T09:42:41;8.67;;;3.80;;
13872;SDS011;7006;51.494;11.964;2022-07-29T09:45:08;5.50;;;4.10;;
13872;SDS011;7006;51.494;11.964;2022-07-29T09:47:43;10.30;;;4.23;;
13872;SDS011;7006;51.494;11.964;2022-07-29T09:50:12;5.67;;;3.60;;
13872;SDS011;7006;51.494;11.964;2022-07-29T09:52:45;6.10;;;4.10;;
13872;SDS011;7006;51.494;11.964;2022-07-29T09:55:13;4.73;;;3.80;;
13872;SDS011;7006;51.494;11.964;2022-07-29T09:57:39;13.10;;;6.87;;
13872;SDS011;7006;51.494;11.964;2022-07-29T10:00:07;17.77;;;14.97;;
13872;SDS011;7006;51.494;11.964;2022-07-29T10:02:36;13.63;;;9.70;;
13872;SDS011;7006;51.494;11.964;2022-07-29T10:05:03;15.40;;;8.47;;
13872;SDS011;7006;51.494;11.964;2022-07-29T10:07:43;14.00;;;11.40;;
13872;SDS011;7006;51.494;11.964;2022-07-29T10:10:17;13.73;;;11.20;;
13872;SDS011;7006;51.494;11.964;2022-07-29T10:12:49;9.87;;;5.63;;
13872;SDS011;7006;51.494;11.964;2022-07-29T10:15:17;9.47;;;7.13;;
13872;SDS011;7006;51.494;11.964;2022-07-29T10:17:44;12.37;;;9.50;;
13872;SDS011;7006;51.494;11.964;2022-07-29T10:20:11;10.37;;;7.50;;
13872;SDS011;7006;51.494;11.964;2022-07-29T10:22:37;13.87;;;7.87;;
13872;SDS011;7006;51.494;11.964;2022-07-29T10:25:06;11.33;;;8.73;;
13872;SDS011;7006;51.494;11.964;2022-07-29T10:27:34;11.83;;;8.20;;
13872;SDS011;7006;51.494;11.964;2022-07-29T10:30:00;12.40;;;7.93;;
13872;SDS011;7006;51.494;11.964;2022-07-29T10:32:32;9.50;;;7.20;;
13872;SDS011;7006;51.494;11.964;2022-07-29T10:35:15;8.50;;;6.30;;
13872;SDS011;7006;51.494;11.964;2022-07-29T10:38:01;10.03;;;7.00;;
13872;SDS011;7006;51.494;11.964;2022-07-29T10:40:36;8.00;;;5.97;;
13872;SDS011;7006;51.494;11.964;2022-07-29T10:43:26;10.20;;;7.00;;
13872;SDS011;7006;51.494;11.964;2022-07-29T10:45:55;11.83;;;5.83;;
13872;SDS011;7006;51.494;11.964;2022-07-29T10:48:22;6.70;;;5.67;;
13872;SDS011;7006;51.494;11.964;2022-07-29T10:50:52;7.90;;;5.57;;
13872;SDS011;7006;51.494;11.964;2022-07-29T10:53:19;7.77;;;5.77;;
13872;SDS011;7006;51.494;11.964;2022-07-29T10:55:47;9.00;;;5.30;;
13872;SDS011;7006;51.494;11.964;2022-07-29T10:58:16;9.20;;;5.33;;
13872;SDS011;7006;51.494;11.964;2022-07-29T11:00:44;6.63;;;4.70;;
13872;SDS011;7006;51.494;11.964;2022-07-29T11:06:13;6.50;;;4.93;;
13872;SDS011;7006;51.494;11.964;2022-07-29T11:08:52;6.30;;;4.37;;
13872;SDS011;7006;51.494;11.964;2022-07-29T11:11:45;8.03;;;4.23;;
13872;SDS011;7006;51.494;11.964;2022-07-29T11:14:12;8.33;;;5.00;;
13872;SDS011;7006;51.494;11.964;2022-07-29T11:19:24;4.83;;;3.60;;
13872;SDS011;7006;51.494;11.964;2022-07-29T11:21:51;7.57;;;4.07;;
13872;SDS011;7006;51.494;11.964;2022-07-29T11:24:19;6.17;;;3.70;;
13872;SDS011;7006;51.494;11.964;2022-07-29T11:29:48;5.30;;;3.90;;
13872;SDS011;7006;51.494;11.964;2022-07-29T11:32:18;7.20;;;4.13;;
13872;SDS011;7006;51.494;11.964;2022-07-29T11:34:46;5.47;;;4.10;;
13872;SDS011;7006;51.494;11.964;2022-07-29T11:37:18;10.83;;;3.93;;
13872;SDS011;7006;51.494;11.964;2022-07-29T11:39:46;4.97;;;3.80;;
13872;SDS011;7006;51.494;11.964;2022-07-29T11:45:12;7.53;;;4.00;;
13872;SDS011;7006;51.494;11.964;2022-07-29T11:47:41;5.40;;;3.77;;
13872;SDS011;7006;51.494;11.964;2022-07-29T11:50:13;5.73;;;3.53;;
13872;SDS011;7006;51.494;11.964;2022-07-29T11:52:42;8.67;;;4.17;;
13872;SDS011;7006;51.494;11.964;2022-07-29T11:55:28;7.00;;;4.30;;
13872;SDS011;7006;51.494;11.964;2022-07-29T11:57:58;5.67;;;3.93;;
13872;SDS011;7006;51.494;11.964;2022-07-29T12:00:26;7.03;;;3.90;;
13872;SDS011;7006;51.494;11.964;2022-07-29T12:02:55;6.97;;;4.17;;
13872;SDS011;7006;51.494;11.964;2022-07-29T12:05:30;7.63;;;4.20;;
13872;SDS011;7006;51.494;11.964;2022-07-29T12:08:03;8.70;;;4.60;;
13872;SDS011;7006;51.494;11.964;2022-07-29T12:10:32;4.23;;;3.57;;
13872;SDS011;7006;51.494;11.964;2022-07-29T12:13:03;4.90;;;3.80;;
13872;SDS011;7006;51.494;11.964;2022-07-29T12:15:30;5.70;;;3.90;;
13872;SDS011;7006;51.494;11.964;2022-07-29T12:17:57;4.90;;;3.87;;
13872;SDS011;7006;51.494;11.964;2022-07-29T12:20:24;6.00;;;4.10;;
13872;SDS011;7006;51.494;11.964;2022-07-29T12:22:51;5.40;;;3.90;;
13872;SDS011;7006;51.494;11.964;2022-07-29T12:25:19;4.30;;;3.90;;
13872;SDS011;7006;51.494;11.964;2022-07-29T12:27:47;5.50;;;3.80;;
13872;SDS011;7006;51.494;11.964;2022-07-29T12:30:15;4.73;;;4.23;;
13872;SDS011;7006;51.494;11.964;2022-07-29T12:32:43;4.83;;;3.47;;
13872;SDS011;7006;51.494;11.964;2022-07-29T12:35:12;6.83;;;4.17;;
13872;SDS011;7006;51.494;11.964;2022-07-29T12:37:40;6.10;;;4.13;;
13872;SDS011;7006;51.494;11.964;2022-07-29T12:40:08;4.97;;;4.10;;
13872;SDS011;7006;51.494;11.964;2022-07-29T12:42:36;4.93;;;3.83;;
13872;SDS011;7006;51.494;11.964;2022-07-29T12:45:02;7.47;;;4.60;;
13872;SDS011;7006;51.494;11.964;2022-07-29T12:47:31;6.63;;;3.93;;
13872;SDS011;7006;51.494;11.964;2022-07-29T12:50:07;4.80;;;4.07;;
13872;SDS011;7006;51.494;11.964;2022-07-29T12:52:35;5.40;;;3.70;;
13872;SDS011;7006;51.494;11.964;2022-07-29T12:55:02;6.23;;;3.87;;
13872;SDS011;7006;51.494;11.964;2022-07-29T12:57:30;5.33;;;3.77;;
13872;SDS011;7006;51.494;11.964;2022-07-29T13:00:04;5.30;;;3.70;;
13872;SDS011;7006;51.494;11.964;2022-07-29T13:02:35;6.53;;;4.00;;
13872;SDS011;7006;51.494;11.964;2022-07-29T13:05:02;9.03;;;3.83;;
13872;SDS011;7006;51.494;11.964;2022-07-29T13:07:30;9.57;;;3.63;;
13872;SDS011;7006;51.494;11.964;2022-07-29T13:10:09;7.60;;;3.60;;
13872;SDS011;7006;51.494;11.964;2022-07-29T13:12:37;5.67;;;3.60;;
13872;SDS011;7006;51.494;11.964;2022-07-29T13:15:11;5.70;;;3.83;;
13872;SDS011;7006;51.494;11.964;2022-07-29T13:17:40;7.50;;;4.03;;
13872;SDS011;7006;51.494;11.964;2022-07-29T13:20:09;7.10;;;4.23;;
13872;SDS011;7006;51.494;11.964;2022-07-29T13:22:39;6.17;;;4.10;;
13872;SDS011;7006;51.494;11.964;2022-07-29T13:25:07;10.07;;;4.77;;
13872;SDS011;7006;51.494;11.964;2022-07-29T13:27:35;4.40;;;3.87;;
13872;SDS011;7006;51.494;11.964;2022-07-29T13:30:03;6.13;;;4.40;;
13872;SDS011;7006;51.494;11.964;2022-07-29T13:32:31;8.77;;;4.63;;
13872;SDS011;7006;51.494;11.964;2022-07-29T13:35:02;6.20;;;4.63;;
13872;SDS011;7006;51.494;11.964;2022-07-29T13:37:29;8.33;;;4.10;;
13872;SDS011;7006;51.494;11.964;2022-07-29T13:39:57;10.33;;;4.00;;
13872;SDS011;7006;51.494;11.964;2022-07-29T13:42:24;6.13;;;4.10;;
13872;SDS011;7006;51.494;11.964;2022-07-29T13:44:52;4.33;;;3.93;;
13872;SDS011;7006;51.494;11.964;2022-07-29T13:47:19;7.80;;;3.93;;
13872;SDS011;7006;51.494;11.964;2022-07-29T13:49:45;7.80;;;4.40;;
13872;SDS011;7006;51.494;11.964;2022-07-29T13:52:13;4.70;;;4.00;;
13872;SDS011;7006;51.494;11.964;2022-07-29T13:54:40;4.90;;;4.20;;
13872;SDS011;7006;51.494;11.964;2022-07-29T13:57:07;5.40;;;4.07;;
13872;SDS011;7006;51.494;11.964;2022-07-29T13:59:35;6.97;;;4.33;;
13872;SDS011;7006;51.494;11.964;2022-07-29T14:02:02;6.20;;;4.20;;
13872;SDS011;7006;51.494;11.964;2022-07-29T14:04:29;7.70;;;3.63;;
13872;SDS011;7006;51.494;11.964;2022-07-29T14:06:56;4.30;;;3.90;;
13872;SDS011;7006;51.494;11.964;2022-07-29T14:09:27;5.90;;;4.27;;
13872;SDS011;7006;51.494;11.964;2022-07-29T14:11:54;5.83;;;4.30;;
13872;SDS011;7006;51.494;11.964;2022-07-29T14:14:21;4.13;;;3.70;;
13872;SDS011;7006;51.494;11.964;2022-07-29T14:16:47;7.03;;;4.40;;
13872;SDS011;7006;51.494;11.964;2022-07-29T14:19:14;5.53;;;4.40;;
13872;SDS011;7006;51.494;11.964;2022-07-29T14:21:40;9.77;;;4.50;;
13872;SDS011;7006;51.494;11.964;2022-07-29T14:24:07;6.80;;;4.57;;
13872;SDS011;7006;51.494;11.964;2022-07-29T14:26:35;7.00;;;4.63;;
13872;SDS011;7006;51.494;11.964;2022-07-29T14:29:01;5.17;;;4.60;;
13872;SDS011;7006;51.494;11.964;2022-07-29T14:31:28;10.13;;;4.60;;
13872;SDS011;7006;51.494;11.964;2022-07-29T14:33:54;4.70;;;4.23;;
13872;SDS011;7006;51.494;11.964;2022-07-29T14:36:31;4.00;;;3.60;;
13872;SDS011;7006;51.494;11.964;2022-07-29T14:39:02;6.03;;;4.30;;
13872;SDS011;7006;51.494;11.964;2022-07-29T14:41:29;5.77;;;3.90;;
13872;SDS011;7006;51.494;11.964;2022-07-29T14:43:58;5.83;;;4.17;;
13872;SDS011;7006;51.494;11.964;2022-07-29T14:46:25;7.20;;;4.33;;
13872;SDS011;7006;51.494;11.964;2022-07-29T14:48:52;5.60;;;4.07;;
13872;SDS011;7006;51.494;11.964;2022-07-29T14:51:19;6.43;;;4.43;;
13872;SDS011;7006;51.494;11.964;2022-07-29T14:53:45;7.00;;;4.40;;
13872;SDS011;7006;51.494;11.964;2022-07-29T14:56:12;6.13;;;4.20;;
13872;SDS011;7006;51.494;11.964;2022-07-29T14:58:38;6.20;;;4.37;;
13872;SDS011;7006;51.494;11.964;2022-07-29T15:01:07;5.90;;;4.27;;
13872;SDS011;7006;51.494;11.964;2022-07-29T15:03:33;7.03;;;3.87;;
13872;SDS011;7006;51.494;11.964;2022-07-29T15:05:59;5.00;;;4.07;;
13872;SDS011;7006;51.494;11.964;2022-07-29T15:08:27;5.30;;;4.17;;